Darstellungsparameter: Aktuell verwendete Einstellungen:
Skalierung der Graphiken ... ?
xyx+y,   Skalierungsfaktor:      Skalierung: Modus: x, Faktor: 1
Darstellungszeitraum ... ?
Vom - - bis: - -   Zeitraum: 12.05.2010 - 12.05.2010
Min/Max/Avg-Anzeige ... ?
Zeige MMA aktuell
Zeige MMA Monat
Zeige MMA alles
Zeige --A aktuell
Zeige --A Monat
Zeige --A alles
Keine MMA-Anzeige
MMA:
Average (ber die Originaldaten)
MMA-Basis: 11.04.2020 - 13.05.2020
Quicknavigation für Darstellung... ?
Tage:      1T, 2T, 3T, 5T -1T -2T -3T -5T +1T +2T +3T +5T
Wochen: 1W, 2W, 3W -1W -2W -3W +1W +2W +3W
Monate: 1M, 3M, 6M -1M -3M -6M +1M +3M +6M
Jahre:    1J, 3J, 5J, 10J -1J -3J -5J -10J +1J +3J +5J +10J
Nutze für die Darstellung ... ?
Originaldaten oder Mittelwerte auf ...
Stundenbasis Tagesbasis Wochenbasis
Monatsbasis Jahresbasis      Datenbasis: Original-Daten
Darstellen als:
Statistik (Auto) Statistik J:M      Darstellung:
Zur Graphik,    zurück zur Übersicht aller Sensoren.
 
Tabellarische Datenbersicht: ?
 
Sensor: Nr:Datum:Temp:Abs-Feuchte:Windchill:Wind:
Aussen-T/F 1 12-05-2010 00:04:03 9.7 C 8.67 g/m*3 9.7 C 0 km/h
2 12-05-2010 00:16:03 9.6 C 8.61 g/m*3 9.6 C 0 km/h
3 12-05-2010 00:28:03 9.1 C 8.34 g/m*3 9.1 C 0 km/h
4 12-05-2010 00:40:03 9.1 C 8.34 g/m*3 9.1 C 0 km/h
5 12-05-2010 00:52:03 9.1 C 8.34 g/m*3 9.1 C 0 km/h
6 12-05-2010 01:04:03 9.1 C 8.34 g/m*3 9.1 C 0 km/h
7 12-05-2010 01:16:03 8.8 C 8.27 g/m*3 8.8 C 0 km/h
8 12-05-2010 01:28:04 8.5 C 8.03 g/m*3 8.5 C 0 km/h
9 12-05-2010 01:40:04 8.4 C 7.97 g/m*3 8.4 C 0 km/h
10 12-05-2010 01:52:04 7.8 C 7.75 g/m*3 7.8 C 0 km/h
11 12-05-2010 02:04:04 7.5 C 7.52 g/m*3 7.5 C 0 km/h
12 12-05-2010 02:16:04 7.8 C 7.75 g/m*3 7.8 C 0 km/h
13 12-05-2010 02:28:04 7.9 C 7.8 g/m*3 7.9 C 0 km/h
14 12-05-2010 02:40:04 7.9 C 7.8 g/m*3 7.9 C 0 km/h
15 12-05-2010 02:52:04 7.5 C 7.6 g/m*3 7.5 C 0 km/h
16 12-05-2010 03:04:04 7.3 C 7.43 g/m*3 7.3 C 0 km/h
17 12-05-2010 03:16:04 7.2 C 7.38 g/m*3 7.2 C 0 km/h
18 12-05-2010 03:28:04 7.1 C 7.33 g/m*3 7.1 C 0 km/h
19 12-05-2010 03:40:04 7 C 7.28 g/m*3 7 C 0 km/h
20 12-05-2010 03:52:04 7 C 7.21 g/m*3 7 C 0 km/h
21 12-05-2010 04:04:04 6.9 C 7.16 g/m*3 6.9 C 0 km/h
22 12-05-2010 04:16:04 6.9 C 7.08 g/m*3 6.9 C 0 km/h
23 12-05-2010 04:28:04 6.9 C 7.01 g/m*3 6.9 C 0 km/h
24 12-05-2010 04:40:04 6.9 C 6.93 g/m*3 6.9 C 0 km/h
25 12-05-2010 04:52:04 6.8 C 6.81 g/m*3 6.8 C 0 km/h
Sensor: Nr:Datum:Temp:Abs-Feuchte:Windchill:Wind:
Aussen-T/F 26 12-05-2010 05:04:04 6.8 C 6.73 g/m*3 6.8 C 0 km/h
27 12-05-2010 05:16:04 6.8 C 6.65 g/m*3 6.8 C 0 km/h
28 12-05-2010 05:28:04 6.8 C 6.65 g/m*3 6.8 C 0 km/h
29 12-05-2010 05:40:05 6.8 C 6.65 g/m*3 6.8 C 0 km/h
30 12-05-2010 05:52:05 6.8 C 6.65 g/m*3 6.8 C 0 km/h
31 12-05-2010 06:04:05 6.7 C 6.61 g/m*3 6.7 C 0 km/h
32 12-05-2010 06:16:05 6.8 C 6.58 g/m*3 6.8 C 0 km/h
33 12-05-2010 06:28:05 6.8 C 6.5 g/m*3 6.8 C 0 km/h
34 12-05-2010 06:40:05 6.8 C 6.58 g/m*3 6.8 C 0 km/h
35 12-05-2010 06:52:05 6.8 C 6.58 g/m*3 6.8 C 0 km/h
36 12-05-2010 07:04:03 6.9 C 6.54 g/m*3 6.9 C 0 km/h
37 12-05-2010 07:16:03 7 C 6.59 g/m*3 7 C 0 km/h
38 12-05-2010 07:28:03 7.1 C 6.71 g/m*3 7.1 C 0 km/h
39 12-05-2010 07:40:03 7.2 C 6.67 g/m*3 7.2 C 0 km/h
40 12-05-2010 07:52:02 7.2 C 6.59 g/m*3 7.2 C 0 km/h
41 12-05-2010 08:04:02 7.3 C 6.56 g/m*3 7.3 C 0 km/h
42 12-05-2010 08:16:02 7.6 C 6.69 g/m*3 7.6 C 0 km/h
43 12-05-2010 08:28:02 7.7 C 6.57 g/m*3 7.7 C 0 km/h
44 12-05-2010 08:40:02 7.8 C 6.45 g/m*3 7.8 C 0 km/h
45 12-05-2010 08:52:01 7.8 C 6.45 g/m*3 7.8 C 0 km/h
46 12-05-2010 09:04:02 8 C 6.37 g/m*3 8 C 0 km/h
47 12-05-2010 09:16:01 8.3 C 6.41 g/m*3 8.3 C 0 km/h
48 12-05-2010 09:28:01 8.4 C 6.19 g/m*3 8.4 C 0 km/h
49 12-05-2010 09:40:01 8.3 C 6.07 g/m*3 8.3 C 0 km/h
50 12-05-2010 09:52:01 8.4 C 6.11 g/m*3 8.4 C 0 km/h
Sensor: Nr:Datum:Temp:Abs-Feuchte:Windchill:Wind:
Aussen-T/F 51 12-05-2010 10:04:02 8.4 C 6.02 g/m*3 8.4 C 0 km/h
52 12-05-2010 10:16:01 8.6 C 6.1 g/m*3 8.6 C 0 km/h
53 12-05-2010 10:28:01 8.6 C 6.02 g/m*3 8.6 C 0 km/h
54 12-05-2010 10:40:01 8.7 C 5.97 g/m*3 8.7 C 0 km/h
55 12-05-2010 10:52:01 8.7 C 5.79 g/m*3 8.7 C 0 km/h
56 12-05-2010 11:04:01 8.7 C 5.79 g/m*3 8.7 C 0 km/h
57 12-05-2010 11:16:02 8.9 C 5.87 g/m*3 8.9 C 0 km/h
58 12-05-2010 11:28:02 8.9 C 5.61 g/m*3 8.9 C 0 km/h
59 12-05-2010 11:40:01 9.3 C 5.57 g/m*3 9.3 C 0 km/h
60 12-05-2010 11:52:01 10.1 C 5.67 g/m*3 10.1 C 0 km/h
61 12-05-2010 12:04:01 10 C 5.54 g/m*3 10 C 0 km/h
62 12-05-2010 12:16:02 9.7 C 5.35 g/m*3 9.7 C 0 km/h
63 12-05-2010 12:28:02 9.9 C 5.51 g/m*3 9.9 C 0 km/h
64 12-05-2010 12:40:01 10.5 C 5.33 g/m*3 10.5 C 0 km/h
65 12-05-2010 12:52:03 10.2 C 5.42 g/m*3 10.2 C 0 km/h
66 12-05-2010 13:04:02 10.5 C 5.43 g/m*3 10.5 C 0 km/h
67 12-05-2010 13:16:02 11.1 C 5.34 g/m*3 11.1 C 0 km/h
68 12-05-2010 13:28:02 10.7 C 5.3 g/m*3 10.7 C 0 km/h
69 12-05-2010 13:40:02 10.4 C 5.2 g/m*3 10.4 C 0 km/h
70 12-05-2010 13:52:02 10.7 C 5.21 g/m*3 10.7 C 0 km/h
71 12-05-2010 14:04:02 10.2 C 5.23 g/m*3 10.2 C 0 km/h
72 12-05-2010 14:16:02 10.2 C 5.23 g/m*3 10.2 C 0 km/h
73 12-05-2010 14:28:02 10.6 C 5.17 g/m*3 10.6 C 0 km/h
74 12-05-2010 14:40:01 10.9 C 5.17 g/m*3 10.9 C 0 km/h
75 12-05-2010 14:52:02 10.7 C 4.81 g/m*3 10.7 C 0 km/h
Sensor: Nr:Datum:Temp:Abs-Feuchte:Windchill:Wind:
Aussen-T/F 76 12-05-2010 15:04:01 11.1 C 5.14 g/m*3 11.1 C 0 km/h
77 12-05-2010 15:16:02 10.8 C 4.94 g/m*3 10.8 C 0 km/h
78 12-05-2010 15:28:02 10.8 C 4.84 g/m*3 10.8 C 0 km/h
79 12-05-2010 15:40:02 10.8 C 5.04 g/m*3 10.8 C 0 km/h
80 12-05-2010 15:52:02 10.7 C 5.11 g/m*3 10.7 C 0 km/h
81 12-05-2010 16:04:02 10.8 C 5.24 g/m*3 10.8 C 0 km/h
82 12-05-2010 16:16:02 10.9 C 5.17 g/m*3 10.9 C 0 km/h
83 12-05-2010 16:28:02 10.7 C 5.3 g/m*3 10.7 C 0 km/h
84 12-05-2010 16:40:02 10.3 C 5.17 g/m*3 10.3 C 0 km/h
85 12-05-2010 16:52:01 9.9 C 5.32 g/m*3 9.9 C 0 km/h
86 12-05-2010 17:04:02 9.6 C 5.22 g/m*3 9.6 C 0 km/h
87 12-05-2010 17:16:01 9.7 C 5.35 g/m*3 9.7 C 0 km/h
88 12-05-2010 17:28:01 9.9 C 5.32 g/m*3 9.9 C 0 km/h
89 12-05-2010 17:40:02 9.9 C 5.32 g/m*3 9.9 C 0 km/h
90 12-05-2010 17:52:02 9.6 C 5.22 g/m*3 9.6 C 0 km/h
91 12-05-2010 18:04:02 9.6 C 5.4 g/m*3 9.6 C 0 km/h
92 12-05-2010 18:16:01 9.3 C 5.39 g/m*3 9.3 C 0 km/h
93 12-05-2010 18:28:01 9.1 C 5.41 g/m*3 9.1 C 0 km/h
94 12-05-2010 18:40:02 9.1 C 5.5 g/m*3 9.1 C 0 km/h
95 12-05-2010 18:52:02 9 C 5.55 g/m*3 9 C 0 km/h
96 12-05-2010 19:04:02 9 C 5.64 g/m*3 9 C 0 km/h
97 12-05-2010 19:16:01 8.8 C 5.66 g/m*3 8.8 C 0 km/h
98 12-05-2010 19:28:01 9 C 5.73 g/m*3 9 C 0 km/h
99 12-05-2010 19:40:02 9 C 5.73 g/m*3 9 C 0 km/h
100 12-05-2010 19:52:02 8.7 C 5.71 g/m*3 8.7 C 0 km/h
Sensor: Nr:Datum:Temp:Abs-Feuchte:Windchill:Wind:
Aussen-T/F 101 12-05-2010 20:04:02 8.6 C 5.76 g/m*3 8.6 C 0 km/h
102 12-05-2010 20:16:02 8.6 C 5.84 g/m*3 8.6 C 0 km/h
103 12-05-2010 20:28:02 8.6 C 5.84 g/m*3 8.6 C 0 km/h
104 12-05-2010 20:40:02 8.5 C 5.81 g/m*3 8.5 C 0 km/h
105 12-05-2010 20:52:02 8.5 C 5.98 g/m*3 8.5 C 0 km/h
106 12-05-2010 21:04:02 8.5 C 5.89 g/m*3 8.5 C 0 km/h
107 12-05-2010 21:16:02 8.4 C 5.94 g/m*3 8.4 C 0 km/h
108 12-05-2010 21:28:02 8.5 C 6.06 g/m*3 8.5 C 0 km/h
109 12-05-2010 21:40:01 8.5 C 6.06 g/m*3 8.5 C 0 km/h
110 12-05-2010 21:52:02 8.3 C 6.07 g/m*3 8.3 C 0 km/h
111 12-05-2010 22:04:01 8 C 6.2 g/m*3 8 C 0 km/h
112 12-05-2010 22:17:03 8 C 6.37 g/m*3 8 C 0 km/h
113 12-05-2010 22:29:03 7.6 C 6.36 g/m*3 7.6 C 0 km/h
114 12-05-2010 22:41:03 7.5 C 6.48 g/m*3 7.5 C 0 km/h
115 12-05-2010 22:53:03 7.7 C 6.65 g/m*3 7.7 C 0 km/h
116 12-05-2010 23:05:03 7.8 C 6.69 g/m*3 7.8 C 0 km/h
117 12-05-2010 23:17:03 7.8 C 6.69 g/m*3 7.8 C 0 km/h
118 12-05-2010 23:29:03 7.8 C 6.69 g/m*3 7.8 C 0 km/h
119 12-05-2010 23:41:04 7.9 C 6.74 g/m*3 7.9 C 0 km/h
120 12-05-2010 23:53:04 7.7 C 6.57 g/m*3 7.7 C 0 km/h

Legende:
   Min
   Max


Maximal/Minimal-Werte vom 11.04.2020 - 13.05.2020

Sensor Min Max Avg
Temp
(Aussen-T/F)
-0.1 °C
15-04-2020  06:55:00
26.2 °C
17-04-2020  18:05:00
12.26 °C

Die Daten stammen von einer Davis Vantage Pro 2 Wetter-Station und werden unter Linux mit der Software wview2wettercgi und aufbereitet. Alle Angaben erfolgen ohne Gewähr für ihre Vollständigkeit oder Richtigkeit.
Kontakt: Rainer Krienke krienke@uni-koblenz.de . Meine Webseiten an der Uni Koblenz oder privat.
Version: $Revision: 0.78 $